Falmouth, Pennsylvania
Current Conditions -  °F | °C
As of 12:56 PM on Friday 28 Nov 2014 (Local Time) from KMDT Reporting Station
Overcast Overcast  
Wind Chill: 25°   Ceiling: 4800
Heat Index: 34°   Visibility: 10mi
Dew Point: 17°   Wind: 12mph
Humidity: 50%   Direction: 300°WNW
Pressure: 30.24"   Gusts: NA
Location:  40.1066°N, 76.6626°W
Report Text: KMDT 281756Z 30010KT 10SM BKN048 OVC055 01/M08 A3024 RMK AO2 SLP246 T00111083 10011 21017 58009
Loading
Personal Weather Stations






























Interactive Weather Map New forecast layout! Learn more

10-Day Weather Forecast

Advertisements
Track Severe Weather on mobile